Terminal Aerodrome Forecast
Issued by NWS

Home | Current Version | Previous Version | Text Only | Print | Product List | Glossary On
Versions: 1 2 3 4 5 6 7 8 9 10 11 12 13 14 15 16 17 18 19 20
000
FTUS43 KLSX 160536
TAFCPS
TAF
KCPS 160536Z 1606/1706 33014G22KT 5SM -RA BR BKN010
      TEMPO 1606/1607 BKN009
     FM160700 33015G21KT P6SM SCT012 OVC070
     FM161100 33014G21KT P6SM OVC022
     FM161900 35010KT P6SM SCT100
     FM162300 36005KT P6SM SCT200=

USA.gov is the U.S. government's official web portal to all federal, state and local government web resources and services.